sensor_id;sensor_type;location;lat;lon;timestamp;P1;durP1;ratioP1;P2;durP2;ratioP2
71914;SDS011;60387;49.994;14.660;2023-04-24T00:01:43;9.37;;;3.30;;
71914;SDS011;60387;49.994;14.660;2023-04-24T00:04:16;10.87;;;3.50;;
71914;SDS011;60387;49.994;14.660;2023-04-24T00:06:50;10.17;;;3.17;;
71914;SDS011;60387;49.994;14.660;2023-04-24T00:09:23;9.63;;;3.40;;
71914;SDS011;60387;49.994;14.660;2023-04-24T00:11:56;6.82;;;2.55;;
71914;SDS011;60387;49.994;14.660;2023-04-24T00:14:30;10.37;;;2.40;;
71914;SDS011;60387;49.994;14.660;2023-04-24T00:17:04;8.10;;;2.77;;
71914;SDS011;60387;49.994;14.660;2023-04-24T00:19:37;7.22;;;2.00;;
71914;SDS011;60387;49.994;14.660;2023-04-24T00:22:10;6.80;;;1.93;;
71914;SDS011;60387;49.994;14.660;2023-04-24T00:24:44;5.37;;;1.83;;
71914;SDS011;60387;49.994;14.660;2023-04-24T00:27:17;6.90;;;1.83;;
71914;SDS011;60387;49.994;14.660;2023-04-24T00:29:51;6.20;;;1.90;;
71914;SDS011;60387;49.994;14.660;2023-04-24T00:32:24;5.67;;;1.63;;
71914;SDS011;60387;49.994;14.660;2023-04-24T00:34:57;5.43;;;1.60;;
71914;SDS011;60387;49.994;14.660;2023-04-24T00:37:31;5.05;;;1.33;;
71914;SDS011;60387;49.994;14.660;2023-04-24T00:40:04;5.07;;;1.40;;
71914;SDS011;60387;49.994;14.660;2023-04-24T00:42:39;5.93;;;1.40;;
71914;SDS011;60387;49.994;14.660;2023-04-24T00:45:13;6.93;;;1.40;;
71914;SDS011;60387;49.994;14.660;2023-04-24T00:47:46;4.73;;;1.30;;
71914;SDS011;60387;49.994;14.660;2023-04-24T00:50:20;5.47;;;1.42;;
71914;SDS011;60387;49.994;14.660;2023-04-24T00:52:54;5.85;;;1.10;;
71914;SDS011;60387;49.994;14.660;2023-04-24T00:55:27;4.70;;;0.93;;
71914;SDS011;60387;49.994;14.660;2023-04-24T00:58:00;3.63;;;0.93;;
71914;SDS011;60387;49.994;14.660;2023-04-24T01:00:34;4.27;;;1.20;;
71914;SDS011;60387;49.994;14.660;2023-04-24T01:03:07;5.20;;;1.23;;
71914;SDS011;60387;49.994;14.660;2023-04-24T01:05:41;5.20;;;1.30;;
71914;SDS011;60387;49.994;14.660;2023-04-24T01:08:15;5.23;;;1.30;;
71914;SDS011;60387;49.994;14.660;2023-04-24T01:10:48;5.70;;;1.70;;
71914;SDS011;60387;49.994;14.660;2023-04-24T01:13:24;5.80;;;1.55;;
71914;SDS011;60387;49.994;14.660;2023-04-24T01:15:57;6.03;;;1.33;;
71914;SDS011;60387;49.994;14.660;2023-04-24T01:18:31;5.97;;;1.42;;
71914;SDS011;60387;49.994;14.660;2023-04-24T01:21:05;5.77;;;1.20;;
71914;SDS011;60387;49.994;14.660;2023-04-24T01:23:41;4.93;;;1.30;;
71914;SDS011;60387;49.994;14.660;2023-04-24T01:26:16;5.05;;;1.30;;
71914;SDS011;60387;49.994;14.660;2023-04-24T01:28:50;4.65;;;1.20;;
71914;SDS011;60387;49.994;14.660;2023-04-24T01:31:24;5.27;;;1.43;;
71914;SDS011;60387;49.994;14.660;2023-04-24T01:33:57;5.00;;;1.20;;
71914;SDS011;60387;49.994;14.660;2023-04-24T01:36:30;4.07;;;1.07;;
71914;SDS011;60387;49.994;14.660;2023-04-24T01:39:05;4.60;;;1.13;;
71914;SDS011;60387;49.994;14.660;2023-04-24T01:41:39;6.32;;;1.70;;
71914;SDS011;60387;49.994;14.660;2023-04-24T01:44:12;4.13;;;0.97;;
71914;SDS011;60387;49.994;14.660;2023-04-24T01:46:45;5.03;;;1.17;;
71914;SDS011;60387;49.994;14.660;2023-04-24T01:49:19;4.50;;;1.00;;
71914;SDS011;60387;49.994;14.660;2023-04-24T01:51:52;4.53;;;1.10;;
71914;SDS011;60387;49.994;14.660;2023-04-24T01:54:26;5.43;;;1.00;;
71914;SDS011;60387;49.994;14.660;2023-04-24T01:56:59;5.90;;;1.30;;
71914;SDS011;60387;49.994;14.660;2023-04-24T01:59:33;4.27;;;1.00;;
71914;SDS011;60387;49.994;14.660;2023-04-24T02:02:07;4.90;;;1.20;;
71914;SDS011;60387;49.994;14.660;2023-04-24T02:04:41;4.22;;;1.38;;
71914;SDS011;60387;49.994;14.660;2023-04-24T02:07:14;5.50;;;1.40;;
71914;SDS011;60387;49.994;14.660;2023-04-24T02:09:47;5.57;;;1.50;;
71914;SDS011;60387;49.994;14.660;2023-04-24T02:12:21;5.53;;;1.50;;
71914;SDS011;60387;49.994;14.660;2023-04-24T02:14:54;5.27;;;1.70;;
71914;SDS011;60387;49.994;14.660;2023-04-24T02:17:27;6.10;;;1.90;;
71914;SDS011;60387;49.994;14.660;2023-04-24T02:20:00;6.43;;;1.57;;
71914;SDS011;60387;49.994;14.660;2023-04-24T02:22:34;6.23;;;1.77;;
71914;SDS011;60387;49.994;14.660;2023-04-24T02:25:07;6.27;;;1.80;;
71914;SDS011;60387;49.994;14.660;2023-04-24T02:27:41;6.22;;;1.75;;
71914;SDS011;60387;49.994;14.660;2023-04-24T02:30:14;7.83;;;2.00;;
71914;SDS011;60387;49.994;14.660;2023-04-24T02:32:47;7.90;;;1.80;;
71914;SDS011;60387;49.994;14.660;2023-04-24T02:35:20;7.13;;;2.20;;
71914;SDS011;60387;49.994;14.660;2023-04-24T02:37:54;6.60;;;2.10;;
71914;SDS011;60387;49.994;14.660;2023-04-24T02:40:27;7.57;;;1.90;;
71914;SDS011;60387;49.994;14.660;2023-04-24T02:43:00;7.57;;;2.27;;
71914;SDS011;60387;49.994;14.660;2023-04-24T02:45:34;8.27;;;2.47;;
71914;SDS011;60387;49.994;14.660;2023-04-24T02:48:07;6.23;;;2.17;;
71914;SDS011;60387;49.994;14.660;2023-04-24T02:50:40;7.90;;;2.53;;
71914;SDS011;60387;49.994;14.660;2023-04-24T02:53:13;7.82;;;2.25;;
71914;SDS011;60387;49.994;14.660;2023-04-24T02:55:47;6.22;;;2.15;;
71914;SDS011;60387;49.994;14.660;2023-04-24T02:58:20;6.90;;;1.70;;
71914;SDS011;60387;49.994;14.660;2023-04-24T03:00:54;6.60;;;2.03;;
71914;SDS011;60387;49.994;14.660;2023-04-24T03:03:27;6.60;;;2.30;;
71914;SDS011;60387;49.994;14.660;2023-04-24T03:06:01;6.87;;;1.97;;
71914;SDS011;60387;49.994;14.660;2023-04-24T03:08:34;5.73;;;2.00;;
71914;SDS011;60387;49.994;14.660;2023-04-24T03:11:08;7.13;;;2.10;;
71914;SDS011;60387;49.994;14.660;2023-04-24T03:13:41;8.03;;;2.10;;
71914;SDS011;60387;49.994;14.660;2023-04-24T03:16:15;6.72;;;2.10;;
71914;SDS011;60387;49.994;14.660;2023-04-24T03:18:48;6.17;;;1.80;;
71914;SDS011;60387;49.994;14.660;2023-04-24T03:21:22;6.90;;;1.57;;
71914;SDS011;60387;49.994;14.660;2023-04-24T03:23:55;6.40;;;2.03;;
71914;SDS011;60387;49.994;14.660;2023-04-24T03:26:28;5.65;;;1.60;;
71914;SDS011;60387;49.994;14.660;2023-04-24T03:29:02;5.10;;;1.30;;
71914;SDS011;60387;49.994;14.660;2023-04-24T03:31:35;4.90;;;1.45;;
71914;SDS011;60387;49.994;14.660;2023-04-24T03:34:08;6.20;;;2.00;;
71914;SDS011;60387;49.994;14.660;2023-04-24T03:36:41;5.73;;;1.83;;
71914;SDS011;60387;49.994;14.660;2023-04-24T03:39:15;5.47;;;1.40;;
71914;SDS011;60387;49.994;14.660;2023-04-24T03:41:48;6.87;;;1.60;;
71914;SDS011;60387;49.994;14.660;2023-04-24T03:44:21;5.37;;;1.63;;
71914;SDS011;60387;49.994;14.660;2023-04-24T03:46:54;5.63;;;1.50;;
71914;SDS011;60387;49.994;14.660;2023-04-24T03:49:28;4.97;;;1.40;;
71914;SDS011;60387;49.994;14.660;2023-04-24T03:52:01;4.20;;;1.00;;
71914;SDS011;60387;49.994;14.660;2023-04-24T03:54:34;5.13;;;1.20;;
71914;SDS011;60387;49.994;14.660;2023-04-24T03:57:08;5.07;;;1.43;;
71914;SDS011;60387;49.994;14.660;2023-04-24T03:59:41;4.43;;;1.10;;
71914;SDS011;60387;49.994;14.660;2023-04-24T04:02:14;4.80;;;1.00;;
71914;SDS011;60387;49.994;14.660;2023-04-24T04:04:47;5.57;;;1.13;;
71914;SDS011;60387;49.994;14.660;2023-04-24T04:07:21;4.43;;;1.10;;
71914;SDS011;60387;49.994;14.660;2023-04-24T04:09:54;5.97;;;1.33;;
71914;SDS011;60387;49.994;14.660;2023-04-24T04:12:27;4.50;;;1.10;;
71914;SDS011;60387;49.994;14.660;2023-04-24T04:15:01;4.88;;;1.40;;
71914;SDS011;60387;49.994;14.660;2023-04-24T04:17:35;5.40;;;1.37;;
71914;SDS011;60387;49.994;14.660;2023-04-24T04:20:08;5.80;;;1.80;;
71914;SDS011;60387;49.994;14.660;2023-04-24T04:22:42;5.57;;;1.75;;
71914;SDS011;60387;49.994;14.660;2023-04-24T04:25:15;6.40;;;1.57;;
71914;SDS011;60387;49.994;14.660;2023-04-24T04:27:49;7.07;;;2.10;;
71914;SDS011;60387;49.994;14.660;2023-04-24T04:30:22;5.97;;;1.80;;
71914;SDS011;60387;49.994;14.660;2023-04-24T04:32:55;5.10;;;1.60;;
71914;SDS011;60387;49.994;14.660;2023-04-24T04:35:28;6.47;;;1.60;;
71914;SDS011;60387;49.994;14.660;2023-04-24T04:38:02;5.33;;;1.90;;
71914;SDS011;60387;49.994;14.660;2023-04-24T04:40:35;6.03;;;2.03;;
71914;SDS011;60387;49.994;14.660;2023-04-24T04:43:11;7.07;;;2.00;;
71914;SDS011;60387;49.994;14.660;2023-04-24T04:45:45;6.50;;;1.65;;
71914;SDS011;60387;49.994;14.660;2023-04-24T04:48:18;8.37;;;1.83;;
71914;SDS011;60387;49.994;14.660;2023-04-24T04:50:52;7.60;;;1.80;;
71914;SDS011;60387;49.994;14.660;2023-04-24T04:53:25;6.05;;;1.98;;
71914;SDS011;60387;49.994;14.660;2023-04-24T04:55:58;6.70;;;1.50;;
71914;SDS011;60387;49.994;14.660;2023-04-24T04:58:31;6.37;;;1.60;;
71914;SDS011;60387;49.994;14.660;2023-04-24T05:01:05;7.37;;;1.60;;
71914;SDS011;60387;49.994;14.660;2023-04-24T05:03:38;6.13;;;1.47;;
71914;SDS011;60387;49.994;14.660;2023-04-24T05:06:11;4.97;;;1.40;;
71914;SDS011;60387;49.994;14.660;2023-04-24T05:08:44;4.07;;;1.47;;
71914;SDS011;60387;49.994;14.660;2023-04-24T05:11:18;3.47;;;1.10;;
71914;SDS011;60387;49.994;14.660;2023-04-24T05:13:51;4.27;;;1.07;;
71914;SDS011;60387;49.994;14.660;2023-04-24T05:16:24;4.10;;;0.97;;
71914;SDS011;60387;49.994;14.660;2023-04-24T05:18:58;3.93;;;1.00;;
71914;SDS011;60387;49.994;14.660;2023-04-24T05:21:31;3.27;;;0.87;;
71914;SDS011;60387;49.994;14.660;2023-04-24T05:24:04;3.90;;;1.10;;
71914;SDS011;60387;49.994;14.660;2023-04-24T05:26:38;4.15;;;0.75;;
71914;SDS011;60387;49.994;14.660;2023-04-24T05:29:11;3.03;;;0.77;;
71914;SDS011;60387;49.994;14.660;2023-04-24T05:31:44;3.10;;;0.70;;
71914;SDS011;60387;49.994;14.660;2023-04-24T05:34:18;3.20;;;0.80;;
71914;SDS011;60387;49.994;14.660;2023-04-24T05:36:51;3.60;;;0.80;;
71914;SDS011;60387;49.994;14.660;2023-04-24T05:39:25;4.27;;;0.80;;
71914;SDS011;60387;49.994;14.660;2023-04-24T05:41:58;4.07;;;0.90;;
71914;SDS011;60387;49.994;14.660;2023-04-24T05:44:31;5.03;;;1.00;;
71914;SDS011;60387;49.994;14.660;2023-04-24T05:47:04;3.80;;;0.90;;
71914;SDS011;60387;49.994;14.660;2023-04-24T05:49:38;4.63;;;1.13;;
71914;SDS011;60387;49.994;14.660;2023-04-24T05:52:11;3.42;;;0.95;;
71914;SDS011;60387;49.994;14.660;2023-04-24T05:54:44;3.55;;;0.80;;
71914;SDS011;60387;49.994;14.660;2023-04-24T05:57:17;3.50;;;0.80;;
71914;SDS011;60387;49.994;14.660;2023-04-24T05:59:51;4.30;;;0.98;;
71914;SDS011;60387;49.994;14.660;2023-04-24T06:02:24;5.13;;;0.90;;
71914;SDS011;60387;49.994;14.660;2023-04-24T06:04:58;5.80;;;0.90;;
71914;SDS011;60387;49.994;14.660;2023-04-24T06:07:32;4.70;;;1.23;;
71914;SDS011;60387;49.994;14.660;2023-04-24T06:10:05;3.70;;;0.90;;
71914;SDS011;60387;49.994;14.660;2023-04-24T06:12:39;3.93;;;0.97;;
71914;SDS011;60387;49.994;14.660;2023-04-24T06:15:12;6.97;;;1.13;;
71914;SDS011;60387;49.994;14.660;2023-04-24T06:17:45;6.32;;;1.00;;
71914;SDS011;60387;49.994;14.660;2023-04-24T06:20:19;3.97;;;0.90;;
71914;SDS011;60387;49.994;14.660;2023-04-24T06:22:52;6.20;;;0.90;;
71914;SDS011;60387;49.994;14.660;2023-04-24T06:25:25;3.27;;;0.80;;
71914;SDS011;60387;49.994;14.660;2023-04-24T06:27:59;3.07;;;0.90;;
71914;SDS011;60387;49.994;14.660;2023-04-24T06:30:32;5.67;;;0.80;;
71914;SDS011;60387;49.994;14.660;2023-04-24T06:33:05;3.10;;;0.90;;
71914;SDS011;60387;49.994;14.660;2023-04-24T06:35:39;4.07;;;1.10;;
71914;SDS011;60387;49.994;14.660;2023-04-24T06:38:12;4.13;;;1.00;;
71914;SDS011;60387;49.994;14.660;2023-04-24T06:40:45;3.00;;;0.80;;
71914;SDS011;60387;49.994;14.660;2023-04-24T06:43:18;4.30;;;1.10;;
71914;SDS011;60387;49.994;14.660;2023-04-24T06:45:52;3.83;;;0.80;;
71914;SDS011;60387;49.994;14.660;2023-04-24T06:48:25;2.87;;;0.80;;
71914;SDS011;60387;49.994;14.660;2023-04-24T06:50:59;3.25;;;0.90;;
71914;SDS011;60387;49.994;14.660;2023-04-24T06:53:32;4.57;;;1.20;;
71914;SDS011;60387;49.994;14.660;2023-04-24T06:56:05;5.60;;;1.13;;
71914;SDS011;60387;49.994;14.660;2023-04-24T06:58:39;3.70;;;0.80;;
71914;SDS011;60387;49.994;14.660;2023-04-24T07:01:12;3.80;;;0.90;;
71914;SDS011;60387;49.994;14.660;2023-04-24T07:03:45;5.17;;;1.10;;
71914;SDS011;60387;49.994;14.660;2023-04-24T07:06:18;3.23;;;1.13;;
71914;SDS011;60387;49.994;14.660;2023-04-24T07:08:52;4.80;;;1.20;;
71914;SDS011;60387;49.994;14.660;2023-04-24T07:11:25;5.07;;;1.10;;
71914;SDS011;60387;49.994;14.660;2023-04-24T07:13:58;3.93;;;1.07;;
71914;SDS011;60387;49.994;14.660;2023-04-24T07:16:32;4.03;;;1.40;;
71914;SDS011;60387;49.994;14.660;2023-04-24T07:19:05;3.80;;;1.13;;
71914;SDS011;60387;49.994;14.660;2023-04-24T07:21:38;5.60;;;1.57;;
71914;SDS011;60387;49.994;14.660;2023-04-24T07:24:12;4.67;;;1.00;;
71914;SDS011;60387;49.994;14.660;2023-04-24T07:26:45;3.80;;;1.00;;
71914;SDS011;60387;49.994;14.660;2023-04-24T07:29:18;4.37;;;1.10;;
71914;SDS011;60387;49.994;14.660;2023-04-24T07:31:52;4.87;;;1.40;;
71914;SDS011;60387;49.994;14.660;2023-04-24T07:34:25;4.00;;;1.20;;
71914;SDS011;60387;49.994;14.660;2023-04-24T07:36:58;3.57;;;1.20;;
71914;SDS011;60387;49.994;14.660;2023-04-24T07:39:32;5.53;;;1.30;;
71914;SDS011;60387;49.994;14.660;2023-04-24T07:42:05;6.53;;;1.50;;
71914;SDS011;60387;49.994;14.660;2023-04-24T07:44:38;5.03;;;1.57;;
71914;SDS011;60387;49.994;14.660;2023-04-24T07:47:12;3.77;;;1.30;;
71914;SDS011;60387;49.994;14.660;2023-04-24T07:49:45;4.30;;;1.30;;
71914;SDS011;60387;49.994;14.660;2023-04-24T07:52:18;4.77;;;1.33;;
71914;SDS011;60387;49.994;14.660;2023-04-24T07:54:51;5.57;;;1.67;;
71914;SDS011;60387;49.994;14.660;2023-04-24T07:57:25;7.13;;;1.83;;
71914;SDS011;60387;49.994;14.660;2023-04-24T07:59:58;6.00;;;1.50;;
71914;SDS011;60387;49.994;14.660;2023-04-24T08:02:32;4.53;;;1.40;;
71914;SDS011;60387;49.994;14.660;2023-04-24T08:05:05;6.88;;;2.00;;
71914;SDS011;60387;49.994;14.660;2023-04-24T08:07:39;5.37;;;1.80;;
71914;SDS011;60387;49.994;14.660;2023-04-24T08:10:12;6.00;;;2.00;;
71914;SDS011;60387;49.994;14.660;2023-04-24T08:12:45;5.37;;;2.00;;
71914;SDS011;60387;49.994;14.660;2023-04-24T08:15:18;5.40;;;1.83;;
71914;SDS011;60387;49.994;14.660;2023-04-24T08:17:52;6.00;;;2.00;;
71914;SDS011;60387;49.994;14.660;2023-04-24T08:20:25;8.60;;;1.90;;
71914;SDS011;60387;49.994;14.660;2023-04-24T08:22:58;5.63;;;1.90;;
71914;SDS011;60387;49.994;14.660;2023-04-24T08:25:32;6.33;;;1.87;;
71914;SDS011;60387;49.994;14.660;2023-04-24T08:28:06;6.97;;;1.90;;
71914;SDS011;60387;49.994;14.660;2023-04-24T08:30:41;5.82;;;1.75;;
71914;SDS011;60387;49.994;14.660;2023-04-24T08:33:14;4.80;;;1.73;;
71914;SDS011;60387;49.994;14.660;2023-04-24T08:35:48;11.20;;;2.10;;
71914;SDS011;60387;49.994;14.660;2023-04-24T08:38:21;4.47;;;1.37;;
71914;SDS011;60387;49.994;14.660;2023-04-24T08:40:54;5.87;;;1.20;;
71914;SDS011;60387;49.994;14.660;2023-04-24T08:43:30;3.47;;;0.90;;
71914;SDS011;60387;49.994;14.660;2023-04-24T08:46:06;4.28;;;0.93;;
71914;SDS011;60387;49.994;14.660;2023-04-24T08:48:39;4.73;;;1.00;;
71914;SDS011;60387;49.994;14.660;2023-04-24T08:51:12;3.17;;;0.77;;
71914;SDS011;60387;49.994;14.660;2023-04-24T08:53:46;4.57;;;1.30;;
71914;SDS011;60387;49.994;14.660;2023-04-24T08:56:20;4.60;;;1.20;;
71914;SDS011;60387;49.994;14.660;2023-04-24T08:58:55;3.80;;;1.02;;
71914;SDS011;60387;49.994;14.660;2023-04-24T09:01:28;3.97;;;1.37;;
71914;SDS011;60387;49.994;14.660;2023-04-24T09:04:04;4.53;;;1.00;;
71914;SDS011;60387;49.994;14.660;2023-04-24T09:06:40;2.70;;;0.80;;
71914;SDS011;60387;49.994;14.660;2023-04-24T09:09:13;5.72;;;1.05;;
71914;SDS011;60387;49.994;14.660;2023-04-24T09:11:50;5.65;;;1.20;;
71914;SDS011;60387;49.994;14.660;2023-04-24T09:14:24;4.80;;;1.05;;
71914;SDS011;60387;49.994;14.660;2023-04-24T09:16:59;7.75;;;1.45;;
71914;SDS011;60387;49.994;14.660;2023-04-24T09:19:32;5.17;;;1.10;;
71914;SDS011;60387;49.994;14.660;2023-04-24T09:22:06;4.10;;;0.73;;
71914;SDS011;60387;49.994;14.660;2023-04-24T09:24:40;3.90;;;0.88;;
71914;SDS011;60387;49.994;14.660;2023-04-24T09:27:13;3.47;;;0.60;;
71914;SDS011;60387;49.994;14.660;2023-04-24T09:29:53;1.77;;;0.43;;
71914;SDS011;60387;49.994;14.660;2023-04-24T09:32:30;1.42;;;0.40;;
71914;SDS011;60387;49.994;14.660;2023-04-24T09:35:13;1.60;;;0.40;;
71914;SDS011;60387;49.994;14.660;2023-04-24T09:37:47;1.73;;;0.40;;
71914;SDS011;60387;49.994;14.660;2023-04-24T09:40:21;1.90;;;0.40;;
71914;SDS011;60387;49.994;14.660;2023-04-24T09:42:56;2.20;;;0.55;;
71914;SDS011;60387;49.994;14.660;2023-04-24T09:45:36;3.72;;;0.65;;
71914;SDS011;60387;49.994;14.660;2023-04-24T09:48:10;2.30;;;0.70;;
71914;SDS011;60387;49.994;14.660;2023-04-24T09:50:45;2.70;;;0.53;;
71914;SDS011;60387;49.994;14.660;2023-04-24T09:53:21;1.83;;;0.50;;
71914;SDS011;60387;49.994;14.660;2023-04-24T09:56:07;2.72;;;0.52;;
71914;SDS011;60387;49.994;14.660;2023-04-24T09:58:41;2.58;;;0.60;;
71914;SDS011;60387;49.994;14.660;2023-04-24T10:01:14;3.97;;;0.90;;
71914;SDS011;60387;49.994;14.660;2023-04-24T10:03:48;4.20;;;0.93;;
71914;SDS011;60387;49.994;14.660;2023-04-24T10:06:21;4.60;;;0.87;;
71914;SDS011;60387;49.994;14.660;2023-04-24T10:08:54;3.27;;;0.80;;
71914;SDS011;60387;49.994;14.660;2023-04-24T10:11:28;4.63;;;0.97;;
71914;SDS011;60387;49.994;14.660;2023-04-24T10:14:02;3.90;;;1.08;;
71914;SDS011;60387;49.994;14.660;2023-04-24T10:16:36;3.00;;;0.80;;
71914;SDS011;60387;49.994;14.660;2023-04-24T10:19:10;3.30;;;0.93;;
71914;SDS011;60387;49.994;14.660;2023-04-24T10:21:44;3.47;;;1.43;;
71914;SDS011;60387;49.994;14.660;2023-04-24T10:24:18;4.80;;;0.90;;
71914;SDS011;60387;49.994;14.660;2023-04-24T10:26:51;5.27;;;1.20;;
71914;SDS011;60387;49.994;14.660;2023-04-24T10:29:25;4.75;;;1.20;;
71914;SDS011;60387;49.994;14.660;2023-04-24T10:31:59;6.23;;;1.37;;
71914;SDS011;60387;49.994;14.660;2023-04-24T10:34:32;4.10;;;1.20;;
71914;SDS011;60387;49.994;14.660;2023-04-24T10:37:05;3.47;;;1.03;;
71914;SDS011;60387;49.994;14.660;2023-04-24T10:39:39;3.38;;;1.10;;
71914;SDS011;60387;49.994;14.660;2023-04-24T10:42:13;4.33;;;1.13;;
71914;SDS011;60387;49.994;14.660;2023-04-24T10:44:47;4.93;;;1.20;;
71914;SDS011;60387;49.994;14.660;2023-04-24T10:47:21;5.17;;;1.70;;
71914;SDS011;60387;49.994;14.660;2023-04-24T10:49:54;2.97;;;0.80;;
71914;SDS011;60387;49.994;14.660;2023-04-24T10:52:47;3.33;;;1.00;;
71914;SDS011;60387;49.994;14.660;2023-04-24T10:58:17;3.13;;;0.88;;
71914;SDS011;60387;49.994;14.660;2023-04-24T11:00:58;3.40;;;0.93;;
71914;SDS011;60387;49.994;14.660;2023-04-24T11:03:33;2.53;;;0.80;;
71914;SDS011;60387;49.994;14.660;2023-04-24T11:06:08;1.90;;;0.50;;
71914;SDS011;60387;49.994;14.660;2023-04-24T11:08:45;5.60;;;0.90;;
71914;SDS011;60387;49.994;14.660;2023-04-24T11:11:18;3.42;;;0.80;;
71914;SDS011;60387;49.994;14.660;2023-04-24T11:25:00;3.88;;;0.70;;
71914;SDS011;60387;49.994;14.660;2023-04-24T11:27:20;2.08;;;0.43;;
71914;SDS011;60387;49.994;14.660;2023-04-24T11:35:15;3.10;;;0.50;;
71914;SDS011;60387;49.994;14.660;2023-04-24T11:37:51;4.77;;;0.60;;
71914;SDS011;60387;49.994;14.660;2023-04-24T11:40:26;1.65;;;0.60;;
71914;SDS011;60387;49.994;14.660;2023-04-24T11:42:59;1.53;;;0.50;;
71914;SDS011;60387;49.994;14.660;2023-04-24T11:45:33;1.98;;;0.50;;
71914;SDS011;60387;49.994;14.660;2023-04-24T11:48:06;2.30;;;0.53;;
71914;SDS011;60387;49.994;14.660;2023-04-24T11:50:39;1.67;;;0.40;;
71914;SDS011;60387;49.994;14.660;2023-04-24T11:53:20;1.70;;;0.50;;
71914;SDS011;60387;49.994;14.660;2023-04-24T11:55:53;3.50;;;0.50;;
71914;SDS011;60387;49.994;14.660;2023-04-24T11:58:26;1.67;;;0.50;;
71914;SDS011;60387;49.994;14.660;2023-04-24T12:01:00;1.47;;;0.40;;
71914;SDS011;60387;49.994;14.660;2023-04-24T12:03:33;2.37;;;0.40;;
71914;SDS011;60387;49.994;14.660;2023-04-24T12:06:07;1.27;;;0.40;;
71914;SDS011;60387;49.994;14.660;2023-04-24T12:08:41;1.88;;;0.40;;
71914;SDS011;60387;49.994;14.660;2023-04-24T12:11:15;1.90;;;0.40;;
71914;SDS011;60387;49.994;14.660;2023-04-24T12:13:49;2.08;;;0.55;;
71914;SDS011;60387;49.994;14.660;2023-04-24T12:16:22;1.73;;;0.33;;
71914;SDS011;60387;49.994;14.660;2023-04-24T12:18:58;3.90;;;0.40;;
71914;SDS011;60387;49.994;14.660;2023-04-24T12:21:32;1.20;;;0.30;;
71914;SDS011;60387;49.994;14.660;2023-04-24T12:24:06;2.60;;;0.37;;
71914;SDS011;60387;49.994;14.660;2023-04-24T12:26:42;1.30;;;0.40;;
71914;SDS011;60387;49.994;14.660;2023-04-24T12:29:22;1.15;;;0.32;;
71914;SDS011;60387;49.994;14.660;2023-04-24T12:31:56;2.00;;;0.50;;
71914;SDS011;60387;49.994;14.660;2023-04-24T12:34:29;3.10;;;0.30;;
71914;SDS011;60387;49.994;14.660;2023-04-24T12:37:11;2.35;;;0.20;;
71914;SDS011;60387;49.994;14.660;2023-04-24T12:42:47;2.07;;;0.30;;
71914;SDS011;60387;49.994;14.660;2023-04-24T12:45:23;2.40;;;0.30;;
71914;SDS011;60387;49.994;14.660;2023-04-24T12:47:56;0.80;;;0.20;;
71914;SDS011;60387;49.994;14.660;2023-04-24T12:50:29;0.67;;;0.10;;
71914;SDS011;60387;49.994;14.660;2023-04-24T12:53:03;1.57;;;0.23;;
71914;SDS011;60387;49.994;14.660;2023-04-24T12:55:36;0.60;;;0.20;;
71914;SDS011;60387;49.994;14.660;2023-04-24T12:58:09;2.90;;;0.30;;
71914;SDS011;60387;49.994;14.660;2023-04-24T13:00:43;1.73;;;0.30;;
71914;SDS011;60387;49.994;14.660;2023-04-24T13:03:16;2.33;;;0.40;;
71914;SDS011;60387;49.994;14.660;2023-04-24T13:05:50;2.47;;;0.63;;
71914;SDS011;60387;49.994;14.660;2023-04-24T13:08:23;2.13;;;0.50;;
71914;SDS011;60387;49.994;14.660;2023-04-24T13:10:57;2.10;;;0.50;;
71914;SDS011;60387;49.994;14.660;2023-04-24T13:13:30;5.40;;;0.40;;
71914;SDS011;60387;49.994;14.660;2023-04-24T13:16:03;2.63;;;0.60;;
71914;SDS011;60387;49.994;14.660;2023-04-24T13:18:37;3.80;;;0.43;;
71914;SDS011;60387;49.994;14.660;2023-04-24T13:21:10;2.70;;;0.30;;
71914;SDS011;60387;49.994;14.660;2023-04-24T13:23:43;1.50;;;0.30;;
71914;SDS011;60387;49.994;14.660;2023-04-24T13:26:17;1.40;;;0.30;;
71914;SDS011;60387;49.994;14.660;2023-04-24T13:28:50;1.87;;;0.40;;
71914;SDS011;60387;49.994;14.660;2023-04-24T13:31:23;1.33;;;0.30;;
71914;SDS011;60387;49.994;14.660;2023-04-24T13:33:56;1.27;;;0.20;;
71914;SDS011;60387;49.994;14.660;2023-04-24T13:36:30;1.83;;;0.40;;
71914;SDS011;60387;49.994;14.660;2023-04-24T13:39:03;2.03;;;0.50;;
71914;SDS011;60387;49.994;14.660;2023-04-24T13:41:38;1.73;;;0.50;;
71914;SDS011;60387;49.994;14.660;2023-04-24T13:44:12;1.30;;;0.40;;
71914;SDS011;60387;49.994;14.660;2023-04-24T13:46:46;1.30;;;0.40;;
71914;SDS011;60387;49.994;14.660;2023-04-24T13:49:21;1.97;;;0.50;;
71914;SDS011;60387;49.994;14.660;2023-04-24T13:51:55;2.58;;;0.65;;
71914;SDS011;60387;49.994;14.660;2023-04-24T13:54:29;1.83;;;0.40;;
71914;SDS011;60387;49.994;14.660;2023-04-24T13:57:02;2.37;;;0.50;;
71914;SDS011;60387;49.994;14.660;2023-04-24T13:59:35;1.33;;;0.40;;
71914;SDS011;60387;49.994;14.660;2023-04-24T14:02:09;3.87;;;0.80;;
71914;SDS011;60387;49.994;14.660;2023-04-24T14:04:42;2.10;;;0.60;;
71914;SDS011;60387;49.994;14.660;2023-04-24T14:07:15;2.93;;;0.70;;
71914;SDS011;60387;49.994;14.660;2023-04-24T14:09:49;3.23;;;0.67;;
71914;SDS011;60387;49.994;14.660;2023-04-24T14:12:22;4.73;;;0.90;;
71914;SDS011;60387;49.994;14.660;2023-04-24T14:14:55;4.03;;;0.70;;
71914;SDS011;60387;49.994;14.660;2023-04-24T14:17:28;3.43;;;0.60;;
71914;SDS011;60387;49.994;14.660;2023-04-24T14:20:02;3.37;;;0.60;;
71914;SDS011;60387;49.994;14.660;2023-04-24T14:22:37;2.53;;;0.70;;
71914;SDS011;60387;49.994;14.660;2023-04-24T14:25:10;2.20;;;0.63;;
71914;SDS011;60387;49.994;14.660;2023-04-24T14:27:43;2.47;;;0.57;;
71914;SDS011;60387;49.994;14.660;2023-04-24T14:30:17;2.70;;;0.60;;
71914;SDS011;60387;49.994;14.660;2023-04-24T14:32:50;2.40;;;0.60;;
71914;SDS011;60387;49.994;14.660;2023-04-24T14:35:24;4.10;;;1.07;;
71914;SDS011;60387;49.994;14.660;2023-04-24T14:37:57;4.47;;;0.80;;
71914;SDS011;60387;49.994;14.660;2023-04-24T14:40:30;5.10;;;1.10;;
71914;SDS011;60387;49.994;14.660;2023-04-24T14:43:03;8.03;;;2.50;;
71914;SDS011;60387;49.994;14.660;2023-04-24T14:45:37;3.72;;;0.70;;
71914;SDS011;60387;49.994;14.660;2023-04-24T14:48:10;5.13;;;1.00;;
71914;SDS011;60387;49.994;14.660;2023-04-24T14:50:44;4.83;;;0.70;;
71914;SDS011;60387;49.994;14.660;2023-04-24T14:53:17;2.17;;;0.70;;
71914;SDS011;60387;49.994;14.660;2023-04-24T14:55:50;4.30;;;1.20;;
71914;SDS011;60387;49.994;14.660;2023-04-24T14:58:23;7.17;;;1.43;;
71914;SDS011;60387;49.994;14.660;2023-04-24T15:00:57;4.37;;;1.00;;
71914;SDS011;60387;49.994;14.660;2023-04-24T15:03:30;7.17;;;1.50;;
71914;SDS011;60387;49.994;14.660;2023-04-24T15:06:03;3.20;;;0.80;;
71914;SDS011;60387;49.994;14.660;2023-04-24T15:08:37;2.97;;;0.60;;
71914;SDS011;60387;49.994;14.660;2023-04-24T15:11:10;5.00;;;1.00;;
71914;SDS011;60387;49.994;14.660;2023-04-24T15:13:44;2.73;;;0.77;;
71914;SDS011;60387;49.994;14.660;2023-04-24T15:16:17;5.33;;;0.90;;
71914;SDS011;60387;49.994;14.660;2023-04-24T15:18:50;3.63;;;1.00;;
71914;SDS011;60387;49.994;14.660;2023-04-24T15:21:24;5.07;;;1.20;;
71914;SDS011;60387;49.994;14.660;2023-04-24T15:23:57;3.20;;;0.80;;
71914;SDS011;60387;49.994;14.660;2023-04-24T15:26:31;2.70;;;0.60;;
71914;SDS011;60387;49.994;14.660;2023-04-24T15:29:04;2.63;;;0.70;;
71914;SDS011;60387;49.994;14.660;2023-04-24T15:31:37;2.97;;;0.70;;
71914;SDS011;60387;49.994;14.660;2023-04-24T15:34:11;3.77;;;0.87;;